sensor_id;sensor_type;location;lat;lon;timestamp;pressure;altitude;pressure_sealevel;temperature;humidity
37450;BME280;23309;52.582;13.406;2022-11-20T00:00:49;100629.53;;;8.55;47.91
37450;BME280;23309;52.582;13.406;2022-11-20T00:03:16;100655.22;;;8.77;47.66
37450;BME280;23309;52.582;13.406;2022-11-20T00:05:43;100604.81;;;8.53;47.71
37450;BME280;23309;52.582;13.406;2022-11-20T00:08:09;100620.03;;;8.62;47.71
37450;BME280;23309;52.582;13.406;2022-11-20T00:10:37;100653.78;;;8.73;47.68
37450;BME280;23309;52.582;13.406;2022-11-20T00:13:09;100658.28;;;8.72;47.74
37450;BME280;23309;52.582;13.406;2022-11-20T00:15:36;100642.66;;;8.68;47.79
37450;BME280;23309;52.582;13.406;2022-11-20T00:18:02;100638.66;;;8.73;47.42
37450;BME280;23309;52.582;13.406;2022-11-20T00:20:28;100624.03;;;8.68;47.21
37450;BME280;23309;52.582;13.406;2022-11-20T00:22:55;100644.34;;;8.80;47.31
37450;BME280;23309;52.582;13.406;2022-11-20T00:25:23;100646.91;;;8.70;47.35
37450;BME280;23309;52.582;13.406;2022-11-20T00:27:49;100649.53;;;8.81;47.30
37450;BME280;23309;52.582;13.406;2022-11-20T00:30:18;100649.88;;;8.88;47.09
37450;BME280;23309;52.582;13.406;2022-11-20T00:32:46;100633.00;;;8.67;47.40
37450;BME280;23309;52.582;13.406;2022-11-20T00:35:12;100653.56;;;8.65;47.28
37450;BME280;23309;52.582;13.406;2022-11-20T00:37:38;100663.38;;;8.64;47.47
37450;BME280;23309;52.582;13.406;2022-11-20T00:40:09;100645.97;;;8.60;47.65
37450;BME280;23309;52.582;13.406;2022-11-20T00:42:45;100646.81;;;8.61;47.62
37450;BME280;23309;52.582;13.406;2022-11-20T00:45:11;100655.63;;;8.61;47.50
37450;BME280;23309;52.582;13.406;2022-11-20T00:47:43;100634.50;;;8.49;47.58
37450;BME280;23309;52.582;13.406;2022-11-20T00:50:09;100663.88;;;8.58;47.48
37450;BME280;23309;52.582;13.406;2022-11-20T00:52:38;100659.28;;;8.60;47.40
37450;BME280;23309;52.582;13.406;2022-11-20T00:55:08;100659.38;;;8.59;47.42
37450;BME280;23309;52.582;13.406;2022-11-20T00:57:36;100649.97;;;8.55;47.34
37450;BME280;23309;52.582;13.406;2022-11-20T01:00:04;100647.19;;;8.56;47.42
37450;BME280;23309;52.582;13.406;2022-11-20T01:02:33;100657.06;;;8.65;47.32
37450;BME280;23309;52.582;13.406;2022-11-20T01:05:04;100646.66;;;8.62;47.17
37450;BME280;23309;52.582;13.406;2022-11-20T01:07:32;100619.22;;;8.51;46.94
37450;BME280;23309;52.582;13.406;2022-11-20T01:10:01;100614.41;;;8.45;46.88
37450;BME280;23309;52.582;13.406;2022-11-20T01:12:27;100646.44;;;8.65;46.72
37450;BME280;23309;52.582;13.406;2022-11-20T01:14:55;100650.41;;;8.71;46.83
37450;BME280;23309;52.582;13.406;2022-11-20T01:17:23;100624.78;;;8.59;46.77
37450;BME280;23309;52.582;13.406;2022-11-20T01:19:49;100628.66;;;8.66;46.56
37450;BME280;23309;52.582;13.406;2022-11-20T01:22:20;100606.25;;;8.57;46.44
37450;BME280;23309;52.582;13.406;2022-11-20T01:24:46;100637.81;;;8.73;46.22
37450;BME280;23309;52.582;13.406;2022-11-20T01:27:12;100634.31;;;8.72;46.30
37450;BME280;23309;52.582;13.406;2022-11-20T01:29:38;100639.50;;;8.74;46.16
37450;BME280;23309;52.582;13.406;2022-11-20T01:32:04;100602.91;;;8.55;46.21
37450;BME280;23309;52.582;13.406;2022-11-20T01:34:31;100612.06;;;8.62;46.56
37450;BME280;23309;52.582;13.406;2022-11-20T01:36:57;100615.34;;;8.66;46.23
37450;BME280;23309;52.582;13.406;2022-11-20T01:39:27;100635.94;;;8.84;46.35
37450;BME280;23309;52.582;13.406;2022-11-20T01:41:55;100638.59;;;8.95;46.23
37450;BME280;23309;52.582;13.406;2022-11-20T01:44:53;100598.75;;;8.94;45.54
37450;BME280;23309;52.582;13.406;2022-11-20T01:47:33;100623.38;;;8.86;45.39
37450;BME280;23309;52.582;13.406;2022-11-20T01:50:05;100626.16;;;8.74;45.86
37450;BME280;23309;52.582;13.406;2022-11-20T01:52:41;100620.66;;;8.66;46.10
37450;BME280;23309;52.582;13.406;2022-11-20T01:55:16;100621.59;;;8.65;46.10
37450;BME280;23309;52.582;13.406;2022-11-20T01:57:45;100618.94;;;8.65;46.33
37450;BME280;23309;52.582;13.406;2022-11-20T02:00:14;100617.88;;;8.67;46.03
37450;BME280;23309;52.582;13.406;2022-11-20T02:02:45;100618.47;;;8.71;46.12
37450;BME280;23309;52.582;13.406;2022-11-20T02:05:23;100637.06;;;8.82;45.85
37450;BME280;23309;52.582;13.406;2022-11-20T02:07:56;100591.78;;;8.50;45.93
37450;BME280;23309;52.582;13.406;2022-11-20T02:10:26;100585.13;;;8.45;45.98
37450;BME280;23309;52.582;13.406;2022-11-20T02:12:53;100609.03;;;8.56;46.14
37450;BME280;23309;52.582;13.406;2022-11-20T02:15:21;100619.91;;;8.64;46.18
37450;BME280;23309;52.582;13.406;2022-11-20T02:17:48;100581.25;;;8.49;45.78
37450;BME280;23309;52.582;13.406;2022-11-20T02:20:14;100588.66;;;8.45;46.00
37450;BME280;23309;52.582;13.406;2022-11-20T02:22:50;100597.69;;;8.54;46.16
37450;BME280;23309;52.582;13.406;2022-11-20T02:25:24;100584.44;;;8.43;46.17
37450;BME280;23309;52.582;13.406;2022-11-20T02:27:54;100615.44;;;8.64;46.22
37450;BME280;23309;52.582;13.406;2022-11-20T02:30:20;100601.63;;;8.39;46.00
37450;BME280;23309;52.582;13.406;2022-11-20T02:32:49;100613.66;;;8.54;46.32
37450;BME280;23309;52.582;13.406;2022-11-20T02:35:42;100611.56;;;8.68;46.18
37450;BME280;23309;52.582;13.406;2022-11-20T02:38:10;100609.31;;;8.53;46.37
37450;BME280;23309;52.582;13.406;2022-11-20T02:40:39;100596.25;;;8.50;45.98
37450;BME280;23309;52.582;13.406;2022-11-20T02:43:06;100601.22;;;8.54;46.12
37450;BME280;23309;52.582;13.406;2022-11-20T02:45:33;100603.25;;;8.51;45.90
37450;BME280;23309;52.582;13.406;2022-11-20T02:47:59;100583.81;;;8.39;45.87
37450;BME280;23309;52.582;13.406;2022-11-20T02:50:26;100606.91;;;8.50;45.65
37450;BME280;23309;52.582;13.406;2022-11-20T02:52:52;100610.28;;;8.52;45.95
37450;BME280;23309;52.582;13.406;2022-11-20T02:55:18;100598.91;;;8.50;45.85
37450;BME280;23309;52.582;13.406;2022-11-20T02:57:47;100600.75;;;8.38;45.99
37450;BME280;23309;52.582;13.406;2022-11-20T03:00:16;100622.16;;;8.48;46.19
37450;BME280;23309;52.582;13.406;2022-11-20T03:02:42;100599.66;;;8.41;46.23
37450;BME280;23309;52.582;13.406;2022-11-20T03:05:08;100604.47;;;8.47;46.01
37450;BME280;23309;52.582;13.406;2022-11-20T03:07:35;100612.91;;;8.63;46.05
37450;BME280;23309;52.582;13.406;2022-11-20T03:10:01;100588.59;;;8.56;46.00
37450;BME280;23309;52.582;13.406;2022-11-20T03:12:30;100608.38;;;8.74;45.92
37450;BME280;23309;52.582;13.406;2022-11-20T03:14:59;100603.53;;;8.79;45.65
37450;BME280;23309;52.582;13.406;2022-11-20T03:17:25;100609.44;;;8.83;45.30
37450;BME280;23309;52.582;13.406;2022-11-20T03:19:52;100598.47;;;8.76;45.64
37450;BME280;23309;52.582;13.406;2022-11-20T03:22:18;100579.75;;;8.67;45.69
37450;BME280;23309;52.582;13.406;2022-11-20T03:24:47;100583.31;;;8.77;45.49
37450;BME280;23309;52.582;13.406;2022-11-20T03:27:14;100589.84;;;8.84;45.52
37450;BME280;23309;52.582;13.406;2022-11-20T03:29:41;100599.50;;;8.85;45.11
37450;BME280;23309;52.582;13.406;2022-11-20T03:32:09;100593.22;;;8.86;45.55
37450;BME280;23309;52.582;13.406;2022-11-20T03:34:38;100594.97;;;8.96;45.40
37450;BME280;23309;52.582;13.406;2022-11-20T03:37:04;100570.22;;;8.85;45.12
37450;BME280;23309;52.582;13.406;2022-11-20T03:39:31;100571.00;;;8.96;45.00
37450;BME280;23309;52.582;13.406;2022-11-20T03:41:57;100587.44;;;9.01;44.92
37450;BME280;23309;52.582;13.406;2022-11-20T03:44:24;100585.50;;;9.03;45.14
37450;BME280;23309;52.582;13.406;2022-11-20T03:46:50;100580.03;;;9.05;44.57
37450;BME280;23309;52.582;13.406;2022-11-20T03:49:19;100559.03;;;8.91;44.98
37450;BME280;23309;52.582;13.406;2022-11-20T03:51:45;100577.66;;;9.02;44.71
37450;BME280;23309;52.582;13.406;2022-11-20T03:54:12;100566.44;;;8.87;44.76
37450;BME280;23309;52.582;13.406;2022-11-20T03:56:39;100560.09;;;8.79;45.03
37450;BME280;23309;52.582;13.406;2022-11-20T03:59:05;100567.91;;;8.80;45.27
37450;BME280;23309;52.582;13.406;2022-11-20T04:01:33;100565.88;;;8.84;45.03
37450;BME280;23309;52.582;13.406;2022-11-20T04:04:00;100577.81;;;8.89;45.17
37450;BME280;23309;52.582;13.406;2022-11-20T04:06:36;100568.53;;;8.84;45.08
37450;BME280;23309;52.582;13.406;2022-11-20T04:09:05;100560.56;;;8.73;44.99
37450;BME280;23309;52.582;13.406;2022-11-20T04:11:35;100553.00;;;8.68;45.33
37450;BME280;23309;52.582;13.406;2022-11-20T04:14:03;100564.47;;;8.69;45.46
37450;BME280;23309;52.582;13.406;2022-11-20T04:16:33;100559.13;;;8.69;45.62
37450;BME280;23309;52.582;13.406;2022-11-20T04:19:02;100561.19;;;8.76;44.96
37450;BME280;23309;52.582;13.406;2022-11-20T04:21:34;100564.88;;;8.85;45.16
37450;BME280;23309;52.582;13.406;2022-11-20T04:24:02;100570.25;;;8.74;45.11
37450;BME280;23309;52.582;13.406;2022-11-20T04:26:31;100584.06;;;8.79;45.05
37450;BME280;23309;52.582;13.406;2022-11-20T04:29:02;100570.88;;;8.66;45.10
37450;BME280;23309;52.582;13.406;2022-11-20T04:31:30;100565.84;;;8.63;45.26
37450;BME280;23309;52.582;13.406;2022-11-20T04:34:00;100570.78;;;8.68;45.18
37450;BME280;23309;52.582;13.406;2022-11-20T04:36:30;100574.66;;;8.64;45.43
37450;BME280;23309;52.582;13.406;2022-11-20T04:39:02;100564.47;;;8.69;44.90
37450;BME280;23309;52.582;13.406;2022-11-20T04:41:32;100571.75;;;8.67;45.16
37450;BME280;23309;52.582;13.406;2022-11-20T04:44:02;100576.22;;;8.66;44.98
37450;BME280;23309;52.582;13.406;2022-11-20T04:46:31;100566.38;;;8.46;45.13
37450;BME280;23309;52.582;13.406;2022-11-20T04:48:59;100571.06;;;8.54;45.29
37450;BME280;23309;52.582;13.406;2022-11-20T04:51:26;100578.19;;;8.53;45.51
37450;BME280;23309;52.582;13.406;2022-11-20T04:53:52;100563.72;;;8.46;45.32
37450;BME280;23309;52.582;13.406;2022-11-20T04:56:21;100565.28;;;8.49;45.47
37450;BME280;23309;52.582;13.406;2022-11-20T04:58:47;100548.38;;;8.39;45.53
37450;BME280;23309;52.582;13.406;2022-11-20T05:01:17;100560.66;;;8.51;45.22
37450;BME280;23309;52.582;13.406;2022-11-20T05:03:51;100567.44;;;8.55;45.35
37450;BME280;23309;52.582;13.406;2022-11-20T05:06:22;100559.44;;;8.55;45.53
37450;BME280;23309;52.582;13.406;2022-11-20T05:08:49;100557.63;;;8.55;45.36
37450;BME280;23309;52.582;13.406;2022-11-20T05:11:20;100531.59;;;8.27;45.69
37450;BME280;23309;52.582;13.406;2022-11-20T05:13:49;100544.97;;;8.37;45.73
37450;BME280;23309;52.582;13.406;2022-11-20T05:16:21;100524.09;;;8.32;45.57
37450;BME280;23309;52.582;13.406;2022-11-20T05:18:48;100549.66;;;8.55;45.61
37450;BME280;23309;52.582;13.406;2022-11-20T05:21:16;100514.72;;;8.38;45.56
37450;BME280;23309;52.582;13.406;2022-11-20T05:23:43;100527.88;;;8.50;45.54
37450;BME280;23309;52.582;13.406;2022-11-20T05:26:15;100543.44;;;8.66;45.48
37450;BME280;23309;52.582;13.406;2022-11-20T05:28:45;100543.31;;;8.67;45.31
37450;BME280;23309;52.582;13.406;2022-11-20T05:31:16;100533.16;;;8.61;45.60
37450;BME280;23309;52.582;13.406;2022-11-20T05:33:45;100542.25;;;8.59;45.29
37450;BME280;23309;52.582;13.406;2022-11-20T05:36:13;100522.47;;;8.41;45.59
37450;BME280;23309;52.582;13.406;2022-11-20T05:38:40;100529.00;;;8.48;45.65
37450;BME280;23309;52.582;13.406;2022-11-20T05:41:09;100513.38;;;8.43;45.52
37450;BME280;23309;52.582;13.406;2022-11-20T05:43:45;100518.81;;;8.53;45.57
37450;BME280;23309;52.582;13.406;2022-11-20T05:46:14;100529.78;;;8.59;45.66
37450;BME280;23309;52.582;13.406;2022-11-20T05:48:42;100537.25;;;8.65;45.45
37450;BME280;23309;52.582;13.406;2022-11-20T05:51:11;100527.94;;;8.60;45.30
37450;BME280;23309;52.582;13.406;2022-11-20T05:53:37;100530.22;;;8.44;45.64
37450;BME280;23309;52.582;13.406;2022-11-20T05:56:07;100527.66;;;8.42;46.02
37450;BME280;23309;52.582;13.406;2022-11-20T05:58:33;100500.06;;;8.43;45.84
37450;BME280;23309;52.582;13.406;2022-11-20T06:01:07;100509.72;;;8.55;45.69
37450;BME280;23309;52.582;13.406;2022-11-20T06:03:34;100518.03;;;8.62;45.57
37450;BME280;23309;52.582;13.406;2022-11-20T06:06:01;100509.31;;;8.60;45.55
37450;BME280;23309;52.582;13.406;2022-11-20T06:08:29;100501.09;;;8.63;45.49
37450;BME280;23309;52.582;13.406;2022-11-20T06:10:55;100508.53;;;8.69;45.45
37450;BME280;23309;52.582;13.406;2022-11-20T06:13:24;100523.91;;;8.76;45.31
37450;BME280;23309;52.582;13.406;2022-11-20T06:15:50;100513.25;;;8.76;45.53
37450;BME280;23309;52.582;13.406;2022-11-20T06:18:20;100505.72;;;8.81;45.43
37450;BME280;23309;52.582;13.406;2022-11-20T06:20:46;100515.63;;;8.79;45.29
37450;BME280;23309;52.582;13.406;2022-11-20T06:23:13;100517.00;;;8.74;45.08
37450;BME280;23309;52.582;13.406;2022-11-20T06:25:39;100505.72;;;8.61;45.53
37450;BME280;23309;52.582;13.406;2022-11-20T06:28:06;100510.63;;;8.65;45.54
37450;BME280;23309;52.582;13.406;2022-11-20T06:30:32;100513.50;;;8.73;45.52
37450;BME280;23309;52.582;13.406;2022-11-20T06:32:59;100507.09;;;8.65;45.53
37450;BME280;23309;52.582;13.406;2022-11-20T06:35:27;100512.06;;;8.69;45.55
37450;BME280;23309;52.582;13.406;2022-11-20T06:37:53;100507.84;;;8.67;45.56
37450;BME280;23309;52.582;13.406;2022-11-20T06:40:21;100516.16;;;8.73;45.65
37450;BME280;23309;52.582;13.406;2022-11-20T06:42:47;100501.78;;;8.65;45.74
37450;BME280;23309;52.582;13.406;2022-11-20T06:45:13;100531.03;;;8.76;45.86
37450;BME280;23309;52.582;13.406;2022-11-20T06:47:42;100513.28;;;8.65;45.55
37450;BME280;23309;52.582;13.406;2022-11-20T06:50:09;100499.28;;;8.63;45.76
37450;BME280;23309;52.582;13.406;2022-11-20T06:52:37;100516.03;;;8.75;45.46
37450;BME280;23309;52.582;13.406;2022-11-20T06:55:05;100510.44;;;8.78;45.53
37450;BME280;23309;52.582;13.406;2022-11-20T06:57:31;100507.06;;;8.76;45.62
37450;BME280;23309;52.582;13.406;2022-11-20T06:59:57;100510.59;;;8.76;45.55
37450;BME280;23309;52.582;13.406;2022-11-20T07:02:26;100508.22;;;8.83;45.36
37450;BME280;23309;52.582;13.406;2022-11-20T07:04:52;100499.72;;;8.89;45.42
37450;BME280;23309;52.582;13.406;2022-11-20T07:07:18;100484.78;;;8.77;45.67
37450;BME280;23309;52.582;13.406;2022-11-20T07:09:47;100507.41;;;9.03;45.25
37450;BME280;23309;52.582;13.406;2022-11-20T07:12:13;100501.94;;;9.04;45.36
37450;BME280;23309;52.582;13.406;2022-11-20T07:14:39;100514.34;;;9.15;45.45
37450;BME280;23309;52.582;13.406;2022-11-20T07:17:05;100506.59;;;9.12;45.23
37450;BME280;23309;52.582;13.406;2022-11-20T07:19:31;100514.25;;;9.26;44.91
37450;BME280;23309;52.582;13.406;2022-11-20T07:21:57;100510.66;;;9.36;45.01
37450;BME280;23309;52.582;13.406;2022-11-20T07:24:23;100504.59;;;9.34;44.79
37450;BME280;23309;52.582;13.406;2022-11-20T07:26:52;100500.06;;;9.25;44.59
37450;BME280;23309;52.582;13.406;2022-11-20T07:29:18;100507.94;;;9.27;44.55
37450;BME280;23309;52.582;13.406;2022-11-20T07:31:44;100491.06;;;9.17;44.72
37450;BME280;23309;52.582;13.406;2022-11-20T07:34:10;100508.66;;;9.29;44.88
37450;BME280;23309;52.582;13.406;2022-11-20T07:36:36;100516.00;;;9.36;44.67
37450;BME280;23309;52.582;13.406;2022-11-20T07:39:03;100500.25;;;9.33;44.54
37450;BME280;23309;52.582;13.406;2022-11-20T07:41:29;100499.16;;;9.36;44.69
37450;BME280;23309;52.582;13.406;2022-11-20T07:43:58;100504.22;;;9.39;44.56
37450;BME280;23309;52.582;13.406;2022-11-20T07:46:24;100493.66;;;9.28;44.40
37450;BME280;23309;52.582;13.406;2022-11-20T07:48:50;100482.28;;;9.26;44.63
37450;BME280;23309;52.582;13.406;2022-11-20T07:51:16;100466.53;;;9.23;44.57
37450;BME280;23309;52.582;13.406;2022-11-20T07:53:42;100475.13;;;9.26;44.52
37450;BME280;23309;52.582;13.406;2022-11-20T07:56:08;100501.16;;;9.43;44.40
37450;BME280;23309;52.582;13.406;2022-11-20T07:58:34;100501.44;;;9.40;44.69
37450;BME280;23309;52.582;13.406;2022-11-20T08:01:06;100502.00;;;9.44;44.38
37450;BME280;23309;52.582;13.406;2022-11-20T08:03:33;100503.00;;;9.52;44.96
37450;BME280;23309;52.582;13.406;2022-11-20T08:06:00;100489.69;;;9.52;44.63
37450;BME280;23309;52.582;13.406;2022-11-20T08:08:26;100493.19;;;9.53;44.45
37450;BME280;23309;52.582;13.406;2022-11-20T08:10:53;100484.31;;;9.43;44.18
37450;BME280;23309;52.582;13.406;2022-11-20T08:13:20;100433.25;;;9.08;43.92
37450;BME280;23309;52.582;13.406;2022-11-20T08:15:49;100481.59;;;9.33;44.47
37450;BME280;23309;52.582;13.406;2022-11-20T08:18:18;100483.34;;;9.44;44.39
37450;BME280;23309;52.582;13.406;2022-11-20T08:20:45;100493.94;;;9.55;44.16
37450;BME280;23309;52.582;13.406;2022-11-20T08:23:11;100467.88;;;9.38;43.91
37450;BME280;23309;52.582;13.406;2022-11-20T08:25:38;100487.16;;;9.51;43.96
37450;BME280;23309;52.582;13.406;2022-11-20T08:28:05;100472.94;;;9.41;43.70
37450;BME280;23309;52.582;13.406;2022-11-20T08:30:33;100475.56;;;9.31;43.64
37450;BME280;23309;52.582;13.406;2022-11-20T08:33:02;100478.81;;;9.35;44.12
37450;BME280;23309;52.582;13.406;2022-11-20T08:35:33;100489.66;;;9.43;43.69
37450;BME280;23309;52.582;13.406;2022-11-20T08:37:59;100476.81;;;9.27;43.70
37450;BME280;23309;52.582;13.406;2022-11-20T08:40:25;100484.13;;;9.35;43.78
37450;BME280;23309;52.582;13.406;2022-11-20T08:42:51;100492.56;;;9.40;43.37
37450;BME280;23309;52.582;13.406;2022-11-20T08:45:18;100486.81;;;9.35;43.31
37450;BME280;23309;52.582;13.406;2022-11-20T08:47:45;100472.53;;;9.15;43.50
37450;BME280;23309;52.582;13.406;2022-11-20T08:50:13;100468.44;;;9.11;43.49
37450;BME280;23309;52.582;13.406;2022-11-20T08:52:43;100487.28;;;9.19;43.44
37450;BME280;23309;52.582;13.406;2022-11-20T08:55:10;100479.88;;;9.23;43.35
37450;BME280;23309;52.582;13.406;2022-11-20T08:57:37;100469.75;;;9.17;43.42
37450;BME280;23309;52.582;13.406;2022-11-20T09:00:07;100490.28;;;9.26;43.39
37450;BME280;23309;52.582;13.406;2022-11-20T09:02:33;100488.47;;;9.26;43.30
37450;BME280;23309;52.582;13.406;2022-11-20T09:04:59;100473.72;;;9.22;43.75
37450;BME280;23309;52.582;13.406;2022-11-20T09:07:25;100472.03;;;9.21;43.55
37450;BME280;23309;52.582;13.406;2022-11-20T09:09:54;100486.56;;;9.38;43.58
37450;BME280;23309;52.582;13.406;2022-11-20T09:12:20;100488.94;;;9.41;43.39
37450;BME280;23309;52.582;13.406;2022-11-20T09:14:48;100475.69;;;9.30;43.02
37450;BME280;23309;52.582;13.406;2022-11-20T09:17:14;100493.50;;;9.29;43.46
37450;BME280;23309;52.582;13.406;2022-11-20T09:19:41;100476.25;;;9.24;43.45
37450;BME280;23309;52.582;13.406;2022-11-20T09:22:07;100487.13;;;9.41;43.63
37450;BME280;23309;52.582;13.406;2022-11-20T09:24:33;100484.88;;;9.37;43.23
37450;BME280;23309;52.582;13.406;2022-11-20T09:27:04;100496.41;;;9.47;43.42
37450;BME280;23309;52.582;13.406;2022-11-20T09:29:31;100495.69;;;9.45;43.42
37450;BME280;23309;52.582;13.406;2022-11-20T09:31:57;100482.22;;;9.37;43.44
37450;BME280;23309;52.582;13.406;2022-11-20T09:34:23;100470.38;;;9.30;43.22
37450;BME280;23309;52.582;13.406;2022-11-20T09:36:49;100464.72;;;9.23;43.32
37450;BME280;23309;52.582;13.406;2022-11-20T09:39:15;100460.09;;;9.25;43.41
37450;BME280;23309;52.582;13.406;2022-11-20T09:42:17;100471.88;;;9.53;43.15
37450;BME280;23309;52.582;13.406;2022-11-20T09:45:05;100463.81;;;9.43;43.33
37450;BME280;23309;52.582;13.406;2022-11-20T09:47:55;100473.97;;;9.49;43.23
37450;BME280;23309;52.582;13.406;2022-11-20T09:50:32;100462.13;;;9.42;43.21
37450;BME280;23309;52.582;13.406;2022-11-20T09:53:11;100462.88;;;9.54;43.40
37450;BME280;23309;52.582;13.406;2022-11-20T09:55:39;100476.41;;;9.62;43.29
37450;BME280;23309;52.582;13.406;2022-11-20T09:58:18;100453.53;;;9.69;43.26
37450;BME280;23309;52.582;13.406;2022-11-20T10:00:47;100476.88;;;9.86;43.14
37450;BME280;23309;52.582;13.406;2022-11-20T10:03:17;100458.75;;;9.80;42.97
37450;BME280;23309;52.582;13.406;2022-11-20T10:05:48;100469.47;;;9.89;42.74
37450;BME280;23309;52.582;13.406;2022-11-20T10:08:21;100466.19;;;9.86;42.69
37450;BME280;23309;52.582;13.406;2022-11-20T10:10:56;100471.44;;;9.97;42.85
37450;BME280;23309;52.582;13.406;2022-11-20T10:13:43;100446.69;;;9.95;42.19
37450;BME280;23309;52.582;13.406;2022-11-20T10:16:21;100450.50;;;10.02;42.59
37450;BME280;23309;52.582;13.406;2022-11-20T10:19:06;100453.31;;;10.00;42.69
37450;BME280;23309;52.582;13.406;2022-11-20T10:21:45;100449.84;;;10.09;42.88
37450;BME280;23309;52.582;13.406;2022-11-20T10:24:43;100443.00;;;10.17;41.86
37450;BME280;23309;52.582;13.406;2022-11-20T10:27:30;100447.44;;;10.06;42.09
37450;BME280;23309;52.582;13.406;2022-11-20T10:30:09;100432.41;;;9.96;42.26
37450;BME280;23309;52.582;13.406;2022-11-20T10:32:39;100439.41;;;9.97;42.26
37450;BME280;23309;52.582;13.406;2022-11-20T10:35:21;100412.19;;;9.93;42.36
37450;BME280;23309;52.582;13.406;2022-11-20T10:37:53;100437.88;;;9.94;41.86
37450;BME280;23309;52.582;13.406;2022-11-20T10:40:30;100423.97;;;10.00;42.32
37450;BME280;23309;52.582;13.406;2022-11-20T10:43:02;100390.66;;;9.95;42.66
37450;BME280;23309;52.582;13.406;2022-11-20T10:45:49;100421.34;;;10.29;41.94
37450;BME280;23309;52.582;13.406;2022-11-20T10:48:20;100310.06;;;9.53;42.28
37450;BME280;23309;52.582;13.406;2022-11-20T10:51:08;100406.88;;;10.41;41.61
37450;BME280;23309;52.582;13.406;2022-11-20T10:53:48;100418.78;;;10.47;41.85
37450;BME280;23309;52.582;13.406;2022-11-20T10:56:21;100404.31;;;10.49;41.87
37450;BME280;23309;52.582;13.406;2022-11-20T10:59:21;100428.16;;;10.89;41.38
37450;BME280;23309;52.582;13.406;2022-11-20T11:01:53;100412.19;;;10.60;40.97
37450;BME280;23309;52.582;13.406;2022-11-20T11:04:33;100407.84;;;10.59;40.27
37450;BME280;23309;52.582;13.406;2022-11-20T11:07:10;100436.91;;;10.72;41.13
37450;BME280;23309;52.582;13.406;2022-11-20T11:09:42;100420.06;;;10.62;41.08
37450;BME280;23309;52.582;13.406;2022-11-20T11:12:11;100431.44;;;10.73;41.06
37450;BME280;23309;52.582;13.406;2022-11-20T11:14:49;100413.88;;;10.61;41.04
37450;BME280;23309;52.582;13.406;2022-11-20T11:17:26;100400.41;;;10.44;40.88
37450;BME280;23309;52.582;13.406;2022-11-20T11:20:00;100391.44;;;10.26;41.25
37450;BME280;23309;52.582;13.406;2022-11-20T11:22:29;100411.66;;;10.28;41.02
37450;BME280;23309;52.582;13.406;2022-11-20T11:24:57;100412.78;;;10.16;41.58
37450;BME280;23309;52.582;13.406;2022-11-20T11:27:23;100412.50;;;10.09;41.63
37450;BME280;23309;52.582;13.406;2022-11-20T11:29:49;100419.66;;;10.28;41.75
37450;BME280;23309;52.582;13.406;2022-11-20T11:32:18;100419.66;;;10.38;41.88
37450;BME280;23309;52.582;13.406;2022-11-20T11:34:59;100414.41;;;10.65;41.38
37450;BME280;23309;52.582;13.406;2022-11-20T11:37:32;100416.25;;;10.55;40.91
37450;BME280;23309;52.582;13.406;2022-11-20T11:39:59;100399.56;;;10.43;40.81
37450;BME280;23309;52.582;13.406;2022-11-20T11:42:25;100400.28;;;10.45;41.38
37450;BME280;23309;52.582;13.406;2022-11-20T11:44:54;100402.94;;;10.45;41.41
37450;BME280;23309;52.582;13.406;2022-11-20T11:47:25;100403.50;;;10.30;41.33
37450;BME280;23309;52.582;13.406;2022-11-20T11:50:19;100375.13;;;10.19;41.93
37450;BME280;23309;52.582;13.406;2022-11-20T11:52:55;100394.09;;;10.16;42.42
37450;BME280;23309;52.582;13.406;2022-11-20T11:55:31;100388.06;;;10.14;42.30
37450;BME280;23309;52.582;13.406;2022-11-20T11:58:14;100389.19;;;10.12;42.43
37450;BME280;23309;52.582;13.406;2022-11-20T12:00:54;100398.44;;;10.07;42.72
37450;BME280;23309;52.582;13.406;2022-11-20T12:03:27;100400.94;;;9.99;43.38
37450;BME280;23309;52.582;13.406;2022-11-20T12:06:05;100397.84;;;9.94;43.29
37450;BME280;23309;52.582;13.406;2022-11-20T12:08:41;100393.06;;;9.79;43.45
37450;BME280;23309;52.582;13.406;2022-11-20T12:11:14;100399.78;;;9.73;43.71
37450;BME280;23309;52.582;13.406;2022-11-20T12:13:48;100363.41;;;9.53;43.66
37450;BME280;23309;52.582;13.406;2022-11-20T12:16:19;100390.19;;;9.61;43.42
37450;BME280;23309;52.582;13.406;2022-11-20T12:18:48;100386.44;;;9.64;43.92
37450;BME280;23309;52.582;13.406;2022-11-20T12:21:31;100392.06;;;9.80;43.30
37450;BME280;23309;52.582;13.406;2022-11-20T12:24:30;100394.03;;;9.78;43.48
37450;BME280;23309;52.582;13.406;2022-11-20T12:27:19;100371.28;;;9.64;43.58
37450;BME280;23309;52.582;13.406;2022-11-20T12:29:57;100376.03;;;9.61;43.74
37450;BME280;23309;52.582;13.406;2022-11-20T12:33:09;100387.00;;;9.77;43.17
37450;BME280;23309;52.582;13.406;2022-11-20T12:36:03;100378.72;;;9.80;43.50
37450;BME280;23309;52.582;13.406;2022-11-20T12:39:07;100382.94;;;10.01;43.35
37450;BME280;23309;52.582;13.406;2022-11-20T12:41:51;100363.88;;;9.87;42.80
37450;BME280;23309;52.582;13.406;2022-11-20T12:44:36;100367.25;;;9.98;43.03
37450;BME280;23309;52.582;13.406;2022-11-20T12:47:17;100345.63;;;10.11;42.71
37450;BME280;23309;52.582;13.406;2022-11-20T12:49:53;100348.59;;;10.18;42.42
37450;BME280;23309;52.582;13.406;2022-11-20T12:52:37;100352.06;;;10.27;41.90
37450;BME280;23309;52.582;13.406;2022-11-20T12:55:28;100370.63;;;10.39;42.10
37450;BME280;23309;52.582;13.406;2022-11-20T12:58:08;100363.88;;;10.35;41.86
37450;BME280;23309;52.582;13.406;2022-11-20T13:00:55;100362.97;;;10.53;42.07
37450;BME280;23309;52.582;13.406;2022-11-20T13:03:42;100351.81;;;10.86;41.43
37450;BME280;23309;52.582;13.406;2022-11-20T13:06:15;100333.84;;;10.79;41.18